createdAt,value
2018-01-10T00:01:53.368Z,6.30
2018-01-10T00:04:20.827Z,6.20
2018-01-10T00:06:48.277Z,6.20
2018-01-10T00:09:15.741Z,6.20
2018-01-10T00:11:43.196Z,6.20
2018-01-10T00:14:10.644Z,6.10
2018-01-10T00:16:38.131Z,6.20
2018-01-10T00:19:05.592Z,6.10
2018-01-10T00:21:33.053Z,6.20
2018-01-10T00:24:00.513Z,6.10
2018-01-10T00:26:27.974Z,6.10
2018-01-10T00:28:55.440Z,6.10
2018-01-10T00:31:22.899Z,6.10
2018-01-10T00:33:51.127Z,6.00
2018-01-10T00:36:18.580Z,6.00
2018-01-10T00:38:46.047Z,6.00
2018-01-10T00:41:13.504Z,6.00
2018-01-10T00:43:40.968Z,6.00
2018-01-10T00:46:08.424Z,6.00
2018-01-10T00:48:35.880Z,6.00
2018-01-10T00:51:03.346Z,5.90
2018-01-10T00:53:30.803Z,6.00
2018-01-10T00:55:58.283Z,6.00
2018-01-10T00:58:25.731Z,6.00
2018-01-10T01:00:53.997Z,6.00
2018-01-10T01:03:21.456Z,6.00
2018-01-10T01:05:48.914Z,6.00
2018-01-10T01:08:16.373Z,6.00
2018-01-10T01:10:43.820Z,6.00
2018-01-10T01:13:11.281Z,6.00
2018-01-10T01:15:38.740Z,6.00
2018-01-10T01:18:06.208Z,6.00
2018-01-10T01:20:33.696Z,5.90
2018-01-10T01:23:01.142Z,5.90
2018-01-10T01:25:28.590Z,5.90
2018-01-10T01:27:56.831Z,5.90
2018-01-10T01:30:24.292Z,5.80
2018-01-10T01:32:51.739Z,5.90
2018-01-10T01:35:19.268Z,5.80
2018-01-10T01:37:46.723Z,5.80
2018-01-10T01:40:14.186Z,5.80
2018-01-10T01:42:41.628Z,5.80
2018-01-10T01:45:09.075Z,5.80
2018-01-10T01:47:37.422Z,5.80
2018-01-10T01:50:04.880Z,5.70
2018-01-10T01:52:32.335Z,5.70
2018-01-10T01:54:59.782Z,5.70
2018-01-10T01:57:27.243Z,5.60
2018-01-10T01:59:54.700Z,5.60
2018-01-10T02:02:22.144Z,5.60
2018-01-10T02:04:49.611Z,5.60
2018-01-10T02:07:17.103Z,5.60
2018-01-10T02:09:44.564Z,5.60
2018-01-10T02:12:12.023Z,5.60
2018-01-10T02:14:39.481Z,5.60
2018-01-10T02:17:06.928Z,5.70
2018-01-10T02:19:34.388Z,5.70
2018-01-10T02:22:01.848Z,5.60
2018-01-10T02:24:29.289Z,5.60
2018-01-10T02:26:57.508Z,5.60
2018-01-10T02:29:24.967Z,5.60
2018-01-10T02:31:52.411Z,5.60
2018-01-10T02:34:20.266Z,5.60
2018-01-10T02:36:47.700Z,5.60
2018-01-10T02:39:15.515Z,5.60
2018-01-10T02:41:42.972Z,5.50
2018-01-10T02:44:10.433Z,5.60
2018-01-10T02:46:37.901Z,5.60
2018-01-10T02:49:05.349Z,5.50
2018-01-10T02:51:32.807Z,5.50
2018-01-10T02:54:00.255Z,5.50
2018-01-10T02:56:27.730Z,5.50
2018-01-10T02:58:55.186Z,5.50
2018-01-10T03:01:22.648Z,5.50
2018-01-10T03:03:50.123Z,5.40
2018-01-10T03:06:18.337Z,5.40
2018-01-10T03:08:45.792Z,5.40
2018-01-10T03:11:13.254Z,5.40
2018-01-10T03:13:40.703Z,5.40
2018-01-10T03:16:08.164Z,5.40
2018-01-10T03:18:35.625Z,5.40
2018-01-10T03:21:03.092Z,5.40
2018-01-10T03:23:30.549Z,5.40
2018-01-10T03:25:58.008Z,5.40
2018-01-10T03:28:25.455Z,5.40
2018-01-10T03:30:52.916Z,5.40
2018-01-10T03:33:20.373Z,5.40
2018-01-10T03:35:47.832Z,5.40
2018-01-10T03:38:15.271Z,5.40
2018-01-10T03:40:42.727Z,5.40
2018-01-10T03:43:10.239Z,5.40
2018-01-10T03:45:37.683Z,5.40
2018-01-10T03:48:05.136Z,5.40
2018-01-10T03:50:32.615Z,5.40
2018-01-10T03:53:00.828Z,5.40
2018-01-10T03:55:28.280Z,5.40
2018-01-10T03:57:55.737Z,5.40
2018-01-10T04:00:23.201Z,5.40
2018-01-10T04:02:50.651Z,5.40
2018-01-10T04:05:18.105Z,5.40
2018-01-10T04:07:46.181Z,5.50
2018-01-10T04:10:13.636Z,5.50
2018-01-10T04:12:41.099Z,5.50
2018-01-10T04:15:08.559Z,5.50
2018-01-10T04:17:36.045Z,5.60
2018-01-10T04:20:03.493Z,5.60
2018-01-10T04:22:31.927Z,5.60
2018-01-10T04:24:59.372Z,5.60
2018-01-10T04:27:26.839Z,5.60
2018-01-10T04:29:54.287Z,5.60
2018-01-10T04:32:21.756Z,5.60
2018-01-10T04:34:49.220Z,5.60
2018-01-10T04:37:16.687Z,5.60
2018-01-10T04:39:44.119Z,5.60
2018-01-10T04:42:11.620Z,5.60
2018-01-10T04:44:39.059Z,5.60
2018-01-10T04:47:06.517Z,5.60
2018-01-10T04:49:33.984Z,5.70
2018-01-10T04:52:01.444Z,5.70
2018-01-10T04:54:28.896Z,5.70
2018-01-10T04:56:56.351Z,5.70
2018-01-10T04:59:23.931Z,5.70
2018-01-10T05:01:51.381Z,5.70
2018-01-10T05:04:18.829Z,5.70
2018-01-10T05:06:46.285Z,5.70
2018-01-10T05:09:13.757Z,5.70
2018-01-10T05:11:41.211Z,5.70
2018-01-10T05:14:08.668Z,5.70
2018-01-10T05:16:36.114Z,5.70
2018-01-10T05:19:03.575Z,5.80
2018-01-10T05:21:31.019Z,5.80
2018-01-10T05:23:58.479Z,5.80
2018-01-10T05:26:25.915Z,5.80
2018-01-10T05:28:53.375Z,5.80
2018-01-10T05:31:20.847Z,5.80
2018-01-10T05:33:48.295Z,5.90
2018-01-10T05:36:15.776Z,5.80
2018-01-10T05:38:43.240Z,5.90
2018-01-10T05:41:10.680Z,5.90
2018-01-10T05:43:38.206Z,5.90
2018-01-10T05:46:05.627Z,5.90
2018-01-10T05:48:33.936Z,5.90
2018-01-10T05:51:01.406Z,5.90
2018-01-10T05:53:28.960Z,5.90
2018-01-10T05:55:56.397Z,6.00
2018-01-10T05:58:23.859Z,6.00
2018-01-10T06:00:51.295Z,6.00
2018-01-10T06:03:19.507Z,6.00
2018-01-10T06:05:46.949Z,6.00
2018-01-10T06:08:14.399Z,6.00
2018-01-10T06:10:41.880Z,6.10
2018-01-10T06:13:09.325Z,6.10
2018-01-10T06:15:36.784Z,6.10
2018-01-10T06:18:04.231Z,6.10
2018-01-10T06:20:32.448Z,6.10
2018-01-10T06:22:59.891Z,6.10
2018-01-10T06:25:27.353Z,6.10
2018-01-10T06:27:54.791Z,6.10
2018-01-10T06:30:22.304Z,6.10
2018-01-10T06:32:50.508Z,6.10
2018-01-10T06:35:17.975Z,6.10
2018-01-10T06:37:45.448Z,6.10
2018-01-10T06:40:12.887Z,6.00
2018-01-10T06:42:40.339Z,6.00
2018-01-10T06:45:07.791Z,6.00
2018-01-10T06:47:35.223Z,6.00
2018-01-10T06:50:03.445Z,6.00
2018-01-10T06:52:31.867Z,6.00
2018-01-10T06:55:00.079Z,5.90
2018-01-10T06:57:27.529Z,5.90
2018-01-10T06:59:58.576Z,5.90
2018-01-10T07:02:30.179Z,5.90
2018-01-10T07:04:57.696Z,5.90
2018-01-10T07:07:25.136Z,5.90
2018-01-10T07:09:52.590Z,5.90
2018-01-10T07:12:20.108Z,5.90
2018-01-10T07:14:47.668Z,5.90
2018-01-10T07:17:15.120Z,5.90
2018-01-10T07:19:42.568Z,5.90
2018-01-10T07:22:10.011Z,5.80
2018-01-10T07:24:37.483Z,5.80
2018-01-10T07:27:04.920Z,5.90
2018-01-10T07:29:32.375Z,5.90
2018-01-10T07:31:59.828Z,5.90
2018-01-10T07:34:27.307Z,5.80
2018-01-10T07:36:54.747Z,5.80
2018-01-10T07:39:22.203Z,5.80
2018-01-10T07:41:49.684Z,5.80
2018-01-10T07:44:17.135Z,5.80
2018-01-10T07:46:44.600Z,5.80
2018-01-10T07:49:12.044Z,5.80
2018-01-10T07:51:39.500Z,5.80
2018-01-10T07:54:07.216Z,5.80
2018-01-10T07:56:34.702Z,5.80
2018-01-10T07:59:02.135Z,5.80
2018-01-10T08:01:29.596Z,5.90
2018-01-10T08:03:57.067Z,5.90
2018-01-10T08:06:24.515Z,5.90
2018-01-10T08:08:51.958Z,5.90
2018-01-10T08:11:19.528Z,6.00
2018-01-10T08:13:46.996Z,6.00
2018-01-10T08:16:14.447Z,6.00
2018-01-10T08:18:42.436Z,6.00
2018-01-10T08:21:09.888Z,6.00
2018-01-10T08:23:37.332Z,6.00
2018-01-10T08:26:05.108Z,6.00
2018-01-10T08:28:32.567Z,6.10
2018-01-10T08:31:00.925Z,6.10
2018-01-10T08:33:28.385Z,6.20
2018-01-10T08:35:55.834Z,6.20
2018-01-10T08:38:23.300Z,6.20
2018-01-10T08:40:50.751Z,6.30
2018-01-10T08:43:18.203Z,6.30
2018-01-10T08:45:45.663Z,6.40
2018-01-10T08:48:13.116Z,6.50
2018-01-10T08:50:40.575Z,6.50
2018-01-10T08:53:08.024Z,6.50
2018-01-10T08:55:35.484Z,6.60
2018-01-10T08:58:02.940Z,6.60
2018-01-10T09:00:30.393Z,6.70
2018-01-10T09:02:57.876Z,6.70
2018-01-10T09:05:25.335Z,6.70
2018-01-10T09:07:52.796Z,6.80
2018-01-10T09:10:20.248Z,6.80
2018-01-10T09:12:47.716Z,6.80
2018-01-10T09:15:15.175Z,6.80
2018-01-10T09:17:42.645Z,6.80
2018-01-10T09:20:10.107Z,6.90
2018-01-10T09:22:37.581Z,6.90
2018-01-10T09:25:05.798Z,6.90
2018-01-10T09:27:33.264Z,6.90
2018-01-10T09:30:00.716Z,6.90
2018-01-10T09:32:28.184Z,6.90
2018-01-10T09:34:55.641Z,6.90
2018-01-10T09:37:23.106Z,7.00
2018-01-10T09:39:50.552Z,7.10
2018-01-10T09:42:18.008Z,7.10
2018-01-10T09:44:45.457Z,7.20
2018-01-10T09:47:12.910Z,7.20
2018-01-10T09:49:40.372Z,7.20
2018-01-10T09:52:07.824Z,7.30
2018-01-10T09:54:35.259Z,7.30
2018-01-10T09:57:02.716Z,7.30
2018-01-10T09:59:30.184Z,7.30
2018-01-10T10:01:57.628Z,7.30
2018-01-10T10:04:25.081Z,7.40
2018-01-10T10:06:52.528Z,7.40
2018-01-10T10:09:19.991Z,7.50
2018-01-10T10:11:47.432Z,7.50
2018-01-10T10:14:14.880Z,7.60
2018-01-10T10:16:43.094Z,7.60
2018-01-10T10:19:10.552Z,7.60
2018-01-10T10:21:38.159Z,7.60
2018-01-10T10:24:05.607Z,7.60
2018-01-10T10:26:33.056Z,7.60
2018-01-10T10:29:00.516Z,7.60
2018-01-10T10:31:28.014Z,7.60
2018-01-10T10:33:55.461Z,7.60
2018-01-10T10:36:22.998Z,7.60
2018-01-10T10:38:50.457Z,7.60
2018-01-10T10:41:17.914Z,7.60
2018-01-10T10:43:46.137Z,7.70
2018-01-10T10:46:13.592Z,7.70
2018-01-10T10:48:41.053Z,7.80
2018-01-10T10:51:08.512Z,7.80
2018-01-10T10:53:35.963Z,7.90
2018-01-10T10:56:03.450Z,7.90
2018-01-10T10:58:30.887Z,7.90
2018-01-10T11:00:58.340Z,7.90
2018-01-10T11:03:25.804Z,7.90
2018-01-10T11:05:53.272Z,8.00
2018-01-10T11:08:20.720Z,8.10
2018-01-10T11:10:48.164Z,8.10
2018-01-10T11:13:15.608Z,8.10
2018-01-10T11:15:43.047Z,8.20
2018-01-10T11:18:10.516Z,8.30
2018-01-10T11:20:37.985Z,8.50
2018-01-10T11:23:05.458Z,8.60
2018-01-10T11:25:32.919Z,8.60
2018-01-10T11:28:00.352Z,8.70
2018-01-10T11:30:27.805Z,8.70
2018-01-10T11:32:55.254Z,8.70
2018-01-10T11:35:22.704Z,8.70
2018-01-10T11:37:50.172Z,8.90
2018-01-10T11:40:17.632Z,9.00
2018-01-10T11:42:45.088Z,9.00
2018-01-10T11:45:12.639Z,9.00
2018-01-10T11:47:40.076Z,9.10
2018-01-10T11:50:08.312Z,9.40
2018-01-10T11:52:35.777Z,9.40
2018-01-10T11:55:03.243Z,9.50
2018-01-10T11:57:30.692Z,9.60
2018-01-10T11:59:58.177Z,9.60
2018-01-10T12:02:25.609Z,9.60
2018-01-10T12:04:53.066Z,9.60
2018-01-10T12:07:20.523Z,9.70
2018-01-10T12:09:48.006Z,9.70
2018-01-10T12:12:16.213Z,9.90
2018-01-10T12:14:43.651Z,9.80
2018-01-10T12:17:11.100Z,9.90
2018-01-10T12:19:38.578Z,10.00
2018-01-10T12:22:06.037Z,10.10
2018-01-10T12:24:33.479Z,10.20
2018-01-10T12:27:00.943Z,10.30
2018-01-10T12:29:28.400Z,10.30
2018-01-10T12:31:55.856Z,10.40
2018-01-10T12:34:23.303Z,10.40
2018-01-10T12:36:50.769Z,10.50
2018-01-10T12:39:18.212Z,10.50
2018-01-10T12:41:45.684Z,10.50
2018-01-10T12:44:13.148Z,10.60
2018-01-10T12:46:40.596Z,10.50
2018-01-10T12:49:08.039Z,10.50
2018-01-10T12:51:35.504Z,10.50
2018-01-10T12:54:02.944Z,10.50
2018-01-10T12:56:30.408Z,10.60
2018-01-10T12:58:57.847Z,10.60
2018-01-10T13:01:26.080Z,10.70
2018-01-10T13:03:53.528Z,10.60
2018-01-10T13:06:21.001Z,10.60
2018-01-10T13:08:48.488Z,10.70
2018-01-10T13:11:15.911Z,10.70
2018-01-10T13:13:43.372Z,10.70
2018-01-10T13:16:10.821Z,10.70
2018-01-10T13:18:38.281Z,10.70
2018-01-10T13:21:05.729Z,10.70
2018-01-10T13:23:33.200Z,10.70
2018-01-10T13:26:00.668Z,10.70
2018-01-10T13:28:28.121Z,10.70
2018-01-10T13:30:55.573Z,10.80
2018-01-10T13:33:23.039Z,10.80
2018-01-10T13:35:50.535Z,10.80
2018-01-10T13:38:18.746Z,10.80
2018-01-10T13:40:46.183Z,10.80
2018-01-10T13:43:13.645Z,10.70
2018-01-10T13:45:41.096Z,10.70
2018-01-10T13:48:08.568Z,10.60
2018-01-10T13:50:36.036Z,10.60
2018-01-10T13:53:03.491Z,10.50
2018-01-10T13:55:30.945Z,10.40
2018-01-10T13:57:58.397Z,10.40
2018-01-10T14:00:25.869Z,10.30
2018-01-10T14:02:53.331Z,10.30
2018-01-10T14:05:20.836Z,10.30
2018-01-10T14:07:48.259Z,10.30
2018-01-10T14:10:16.468Z,10.30
2018-01-10T14:12:43.932Z,10.30
2018-01-10T14:15:11.424Z,10.30
2018-01-10T14:17:38.883Z,10.20
2018-01-10T14:20:06.331Z,10.20
2018-01-10T14:22:33.786Z,10.20
2018-01-10T14:25:01.246Z,10.20
2018-01-10T14:27:28.715Z,10.10
2018-01-10T14:29:56.180Z,10.10
2018-01-10T14:32:23.640Z,10.10
2018-01-10T14:34:51.108Z,10.10
2018-01-10T14:37:19.328Z,10.00
2018-01-10T14:39:46.783Z,10.00
2018-01-10T14:42:14.243Z,10.00
2018-01-10T14:44:41.704Z,10.00
2018-01-10T14:47:09.156Z,10.00
2018-01-10T14:49:36.617Z,9.90
2018-01-10T14:52:04.086Z,9.90
2018-01-10T14:54:31.529Z,9.90
2018-01-10T14:56:58.987Z,9.80
2018-01-10T14:59:26.438Z,9.80
2018-01-10T15:01:53.884Z,9.80
2018-01-10T15:04:21.343Z,9.80
2018-01-10T15:06:48.796Z,9.80
2018-01-10T15:09:16.244Z,9.80
2018-01-10T15:11:43.684Z,9.80
2018-01-10T15:14:11.153Z,9.80
2018-01-10T15:16:38.608Z,9.70
2018-01-10T15:19:06.085Z,9.70
2018-01-10T15:21:33.540Z,9.70
2018-01-10T15:24:01.002Z,9.60
2018-01-10T15:26:28.439Z,9.60
2018-01-10T15:28:55.901Z,9.50
2018-01-10T15:31:23.361Z,9.50
2018-01-10T15:33:50.827Z,9.50
2018-01-10T15:36:18.280Z,9.50
2018-01-10T15:38:45.741Z,9.40
2018-01-10T15:41:13.198Z,9.40
2018-01-10T15:43:40.661Z,9.40
2018-01-10T15:46:08.108Z,9.30
2018-01-10T15:48:35.578Z,9.30
2018-01-10T15:51:03.016Z,9.30
2018-01-10T15:53:30.457Z,9.30
2018-01-10T15:55:57.915Z,9.20
2018-01-10T15:58:25.377Z,9.20
2018-01-10T16:00:52.832Z,9.20
2018-01-10T16:03:20.272Z,9.20
2018-01-10T16:05:47.739Z,9.20
2018-01-10T16:08:15.196Z,9.20
2018-01-10T16:10:42.653Z,9.20
2018-01-10T16:13:10.122Z,9.10
2018-01-10T16:15:37.599Z,9.10
2018-01-10T16:18:05.062Z,9.10
2018-01-10T16:20:32.515Z,9.10
2018-01-10T16:22:59.965Z,9.10
2018-01-10T16:25:27.416Z,9.10
2018-01-10T16:27:54.859Z,9.10
2018-01-10T16:30:22.308Z,9.10
2018-01-10T16:32:49.752Z,9.10
2018-01-10T16:35:17.212Z,9.00
2018-01-10T16:37:44.667Z,9.00
2018-01-10T16:40:12.119Z,9.00
2018-01-10T16:42:39.581Z,9.00
2018-01-10T16:45:07.032Z,9.00
2018-01-10T16:47:34.480Z,8.90
2018-01-10T16:50:02.700Z,8.90
2018-01-10T16:52:30.158Z,8.90
2018-01-10T16:54:57.638Z,8.90
2018-01-10T16:57:25.089Z,8.80
2018-01-10T16:59:52.555Z,8.90
2018-01-10T17:02:20.004Z,8.80
2018-01-10T17:04:47.449Z,8.80
2018-01-10T17:07:14.904Z,8.80
2018-01-10T17:09:42.355Z,8.80
2018-01-10T17:12:09.803Z,8.80
2018-01-10T17:14:37.249Z,8.80
2018-01-10T17:17:04.700Z,8.80
2018-01-10T17:19:32.166Z,8.80
2018-01-10T17:21:59.621Z,8.80
2018-01-10T17:24:27.080Z,8.80
2018-01-10T17:26:54.532Z,8.70
2018-01-10T17:29:21.976Z,8.70
2018-01-10T17:31:49.428Z,8.70
2018-01-10T17:34:16.880Z,8.70
2018-01-10T17:36:45.115Z,8.70
2018-01-10T17:39:12.588Z,8.70
2018-01-10T17:41:40.832Z,8.60
2018-01-10T17:44:08.276Z,8.60
2018-01-10T17:46:35.746Z,8.60
2018-01-10T17:49:03.200Z,8.60
2018-01-10T17:51:30.655Z,8.60
2018-01-10T17:53:58.097Z,8.60
2018-01-10T17:56:25.552Z,8.60
2018-01-10T17:58:53.004Z,8.60
2018-01-10T18:01:20.459Z,8.60
2018-01-10T18:03:47.912Z,8.60
2018-01-10T18:06:15.373Z,8.60
2018-01-10T18:08:42.826Z,8.60
2018-01-10T18:11:10.284Z,8.60
2018-01-10T18:13:37.746Z,8.60
2018-01-10T18:16:05.196Z,8.60
2018-01-10T18:18:32.660Z,8.60
2018-01-10T18:21:00.116Z,8.60
2018-01-10T18:23:27.564Z,8.60
2018-01-10T18:25:55.033Z,8.60
2018-01-10T18:28:22.583Z,8.60
2018-01-10T18:30:50.024Z,8.60
2018-01-10T18:33:17.487Z,8.60
2018-01-10T18:35:44.932Z,8.60
2018-01-10T18:38:12.391Z,8.60
2018-01-10T18:40:39.839Z,8.60
2018-01-10T18:43:07.298Z,8.60
2018-01-10T18:45:34.751Z,8.60
2018-01-10T18:48:02.976Z,8.60
2018-01-10T18:50:30.424Z,8.60
2018-01-10T18:52:57.864Z,8.70
2018-01-10T18:55:25.339Z,8.70
2018-01-10T18:57:52.785Z,8.70
2018-01-10T19:00:20.240Z,8.70
2018-01-10T19:02:47.700Z,8.70
2018-01-10T19:05:15.492Z,8.70
2018-01-10T19:07:42.888Z,8.70
2018-01-10T19:10:10.333Z,8.70
2018-01-10T19:12:38.561Z,8.70
2018-01-10T19:15:06.016Z,8.70
2018-01-10T19:17:33.484Z,8.70
2018-01-10T19:20:00.932Z,8.80
2018-01-10T19:22:28.392Z,8.80
2018-01-10T19:24:55.924Z,8.70
2018-01-10T19:27:23.373Z,8.80
2018-01-10T19:29:50.863Z,8.70
2018-01-10T19:32:18.308Z,8.80
2018-01-10T19:34:45.780Z,8.70
2018-01-10T19:37:13.236Z,8.80
2018-01-10T19:39:40.688Z,8.80
2018-01-10T19:42:08.144Z,8.80
2018-01-10T19:44:35.603Z,8.80
2018-01-10T19:47:03.060Z,8.80
2018-01-10T19:49:30.511Z,8.80
2018-01-10T19:51:57.977Z,8.80
2018-01-10T19:54:25.423Z,8.80
2018-01-10T19:56:52.888Z,8.80
2018-01-10T19:59:20.352Z,8.70
2018-01-10T20:01:47.812Z,8.70
2018-01-10T20:04:15.285Z,8.70
2018-01-10T20:06:42.752Z,8.70
2018-01-10T20:09:10.212Z,8.70
2018-01-10T20:11:38.433Z,8.70
2018-01-10T20:14:05.892Z,8.70
2018-01-10T20:16:33.337Z,8.70
2018-01-10T20:19:00.792Z,8.70
2018-01-10T20:21:28.226Z,8.70
2018-01-10T20:23:56.090Z,8.70
2018-01-10T20:26:23.552Z,8.70
2018-01-10T20:28:51.088Z,8.60
2018-01-10T20:31:19.302Z,8.60
2018-01-10T20:33:46.756Z,8.60
2018-01-10T20:39:07.534Z,8.60
2018-01-10T20:41:35.023Z,8.60
2018-01-10T20:44:02.478Z,8.60
2018-01-10T20:46:29.920Z,8.60
2018-01-10T20:48:58.155Z,8.70
2018-01-10T20:51:25.616Z,8.70
2018-01-10T20:53:53.076Z,8.70
2018-01-10T20:56:20.548Z,8.80
2018-01-10T20:58:48.017Z,8.80
2018-01-10T21:01:16.228Z,8.90
2018-01-10T21:03:43.680Z,8.80
2018-01-10T21:06:11.133Z,8.80
2018-01-10T21:08:38.590Z,8.80
2018-01-10T21:11:06.072Z,8.80
2018-01-10T21:13:33.521Z,8.80
2018-01-10T21:16:00.996Z,8.80
2018-01-10T21:18:28.453Z,8.80
2018-01-10T21:20:55.900Z,8.80
2018-01-10T21:23:23.372Z,8.70
2018-01-10T21:25:50.837Z,8.70
2018-01-10T21:28:18.329Z,8.70
2018-01-10T21:30:45.796Z,8.70
2018-01-10T21:33:13.271Z,8.60
2018-01-10T21:35:40.750Z,8.60
2018-01-10T21:38:08.210Z,8.60
2018-01-10T21:40:35.717Z,8.60
2018-01-10T21:43:03.260Z,8.60
2018-01-10T21:45:33.397Z,8.50
2018-01-10T21:48:00.880Z,8.60
2018-01-10T21:50:28.348Z,8.50
2018-01-10T21:52:55.804Z,8.50
2018-01-10T21:55:23.278Z,8.50
2018-01-10T21:57:51.627Z,8.50
2018-01-10T22:00:19.095Z,8.50
2018-01-10T22:02:46.572Z,8.50
2018-01-10T22:05:14.028Z,8.50
2018-01-10T22:07:41.482Z,8.50
2018-01-10T22:10:08.964Z,8.40
2018-01-10T22:12:38.155Z,8.40
2018-01-10T22:15:06.468Z,8.40
2018-01-10T22:17:42.293Z,8.40
2018-01-10T22:20:10.540Z,8.30
2018-01-10T22:22:38.000Z,8.30
2018-01-10T22:25:05.461Z,8.20
2018-01-10T22:27:32.924Z,8.10
2018-01-10T22:30:00.395Z,8.10
2018-01-10T22:32:28.618Z,8.00
2018-01-10T22:34:56.085Z,8.00
2018-01-10T22:37:23.539Z,7.90
2018-01-10T22:39:50.991Z,7.90
2018-01-10T22:42:18.441Z,7.80
2018-01-10T22:44:45.906Z,7.70
2018-01-10T22:47:13.379Z,7.70
2018-01-10T22:49:40.832Z,7.60
2018-01-10T22:52:08.307Z,7.60
2018-01-10T22:54:35.774Z,7.50
2018-01-10T22:57:04.001Z,7.40
2018-01-10T22:59:31.442Z,7.40
2018-01-10T23:01:59.823Z,7.40
2018-01-10T23:04:28.028Z,7.30
2018-01-10T23:06:55.486Z,7.40
2018-01-10T23:09:22.911Z,7.30
2018-01-10T23:11:50.355Z,7.30
2018-01-10T23:14:18.647Z,7.20
2018-01-10T23:16:46.087Z,7.20
2018-01-10T23:19:13.521Z,7.20
2018-01-10T23:21:41.743Z,7.10
2018-01-10T23:24:09.234Z,7.10
2018-01-10T23:29:25.499Z,6.90
2018-01-10T23:31:52.944Z,6.90
2018-01-10T23:34:21.195Z,6.90
2018-01-10T23:36:49.390Z,6.80
2018-01-10T23:39:16.828Z,6.80
2018-01-10T23:41:45.036Z,6.80
2018-01-10T23:44:13.243Z,6.70
2018-01-10T23:46:40.716Z,6.70
2018-01-10T23:51:58.616Z,6.60
2018-01-10T23:54:26.056Z,6.50
2018-01-10T23:56:53.513Z,6.50
2018-01-10T23:59:20.976Z,6.40
